Time;durP1;ratioP1;P1;durP2;ratioP2;P2;SDS_P1;SDS_P2;PMS_P1;PMS_P2;Temp;Humidity;BMP_temperature;BMP_pressure;BME280_temperature;BME280_humidity;BME280_pressure;Samples;Min_cycle;Max_cycle;Signal;HPM_P1;HPM_P2
2022/01/15 00:02:01;;;;;;;30.42;22.60;;;1.10;99.90;;;;;;5018239;28;20208;-82
2022/01/15 00:04:28;;;;;;;33.70;25.70;;;1.10;99.90;;;;;;5018987;28;20785;-82
2022/01/15 00:06:55;;;;;;;30.25;27.05;;;0.90;99.90;;;;;;5017292;28;20208;-83
2022/01/15 00:09:21;;;;;;;34.25;25.52;;;0.90;99.90;;;;;;5017280;28;20234;-83
2022/01/15 00:11:48;;;;;;;34.08;24.10;;;0.90;99.90;;;;;;5019272;28;20211;-83
2022/01/15 00:14:23;;;;;;;27.15;24.38;;;0.90;99.90;;;;;;5019757;28;20211;-84
2022/01/15 00:16:56;;;;;;;28.10;25.20;;;1.00;99.90;;;;;;5019192;28;20246;-83
2022/01/15 00:19:35;;;;;;;31.90;25.52;;;1.00;99.90;;;;;;5019634;28;20235;-83
2022/01/15 00:22:03;;;;;;;34.33;26.77;;;0.90;99.90;;;;;;5020972;28;20207;-85
2022/01/15 00:24:29;;;;;;;32.78;24.80;;;0.90;99.90;;;;;;5039835;28;20230;-84
2022/01/15 00:26:56;;;;;;;33.20;26.25;;;0.90;99.90;;;;;;5040857;28;20206;-84
2022/01/15 00:29:23;;;;;;;29.52;25.55;;;0.90;99.90;;;;;;5021202;28;20304;-83
2022/01/15 00:31:51;;;;;;;27.38;23.98;;;0.90;99.90;;;;;;5021166;28;20204;-84
2022/01/15 00:34:17;;;;;;;30.35;25.42;;;0.90;99.90;;;;;;5039615;28;20559;-84
2022/01/15 00:36:44;;;;;;;24.70;21.90;;;0.90;99.90;;;;;;5038523;28;20222;-83
2022/01/15 00:39:11;;;;;;;28.60;21.77;;;1.00;99.90;;;;;;5037977;28;20226;-84
2022/01/15 00:41:38;;;;;;;27.58;23.23;;;0.90;99.90;;;;;;5038156;28;20210;-83
2022/01/15 00:44:05;;;;;;;24.25;21.40;;;0.90;99.90;;;;;;5023642;28;20207;-84
2022/01/15 00:46:31;;;;;;;26.23;22.83;;;0.90;99.90;;;;;;5026012;28;20210;-84
2022/01/15 00:48:59;;;;;;;27.10;22.50;;;0.90;99.90;;;;;;5042841;28;20230;-83
2022/01/15 00:51:26;;;;;;;28.08;23.55;;;0.80;99.90;;;;;;5037334;28;20209;-82
2022/01/15 00:53:53;;;;;;;30.20;22.08;;;0.80;99.90;;;;;;5020319;28;20623;-82
2022/01/15 00:56:20;;;;;;;23.33;20.77;;;0.80;99.90;;;;;;5040415;28;20222;-82
2022/01/15 00:58:47;;;;;;;25.35;20.88;;;0.80;99.90;;;;;;5040106;28;20227;-82
2022/01/15 01:01:13;;;;;;;23.92;20.33;;;0.80;99.90;;;;;;5024523;28;20200;-86
2022/01/15 01:03:40;;;;;;;26.05;20.55;;;0.80;99.90;;;;;;5021932;28;20215;-83
2022/01/15 01:06:08;;;;;;;22.42;19.92;;;0.80;99.90;;;;;;5036488;28;20572;-83
2022/01/15 01:08:35;;;;;;;26.25;20.42;;;0.80;99.90;;;;;;5041343;28;20236;-85
2022/01/15 01:11:10;;;;;;;24.90;20.55;;;0.80;99.90;;;;;;5025198;28;20215;-83
2022/01/15 01:20:02;;;;;;;24.70;20.65;;;0.80;99.90;;;;;;5027568;28;20205;-82
2022/01/15 01:22:49;;;;;;;24.13;21.55;;;0.70;99.90;;;;;;5041685;28;20212;-84
2022/01/15 01:24:56;;;;;;;22.83;19.25;;;0.70;99.90;;;;;;5031952;28;20222;-83
2022/01/15 01:27:27;;;;;;;24.33;19.90;;;0.50;99.90;;;;;;5023549;28;20251;-83
2022/01/15 01:30:08;;;;;;;27.33;22.17;;;0.50;99.90;;;;;;5030554;28;20242;-84
2022/01/15 01:32:50;;;;;;;25.98;22.67;;;0.50;99.90;;;;;;5021946;28;20217;-84
2022/01/15 01:35:33;;;;;;;22.25;19.08;;;0.50;99.90;;;;;;5023595;28;20211;-83
2022/01/15 01:38:10;;;;;;;23.85;20.73;;;0.60;99.90;;;;;;5032794;28;20250;-86
2022/01/15 01:40:42;;;;;;;24.00;21.23;;;0.60;99.90;;;;;;5022190;28;20202;-85
2022/01/15 01:43:30;;;;;;;28.70;20.55;;;0.60;99.90;;;;;;5018019;28;20216;-82
2022/01/15 01:46:13;;;;;;;23.40;20.38;;;0.60;99.90;;;;;;5017335;28;20244;-82
2022/01/15 01:48:40;;;;;;;24.65;21.63;;;0.60;99.90;;;;;;5017924;28;20231;-82
2022/01/15 01:51:08;;;;;;;22.15;19.83;;;0.60;99.90;;;;;;5020497;28;20210;-83
2022/01/15 01:53:36;;;;;;;26.50;22.00;;;0.60;99.90;;;;;;5037227;28;20576;-82
2022/01/15 01:56:04;;;;;;;29.05;21.65;;;0.60;99.90;;;;;;5031766;28;20207;-82
2022/01/15 01:58:31;;;;;;;26.55;21.23;;;0.30;99.90;;;;;;5022123;28;20230;-82
2022/01/15 02:00:58;;;;;;;26.77;21.10;;;0.40;99.90;;;;;;5030298;28;20203;-83
2022/01/15 02:03:25;;;;;;;28.33;22.10;;;0.40;99.90;;;;;;5042396;28;20676;-86
2022/01/15 02:05:52;;;;;;;29.52;24.15;;;0.40;99.90;;;;;;5034909;28;20210;-83
2022/01/15 02:08:19;;;;;;;26.23;20.35;;;0.40;99.90;;;;;;5022305;28;20219;-82
2022/01/15 02:10:47;;;;;;;25.23;21.17;;;0.40;99.90;;;;;;5021895;28;20204;-82
2022/01/15 02:13:14;;;;;;;20.55;18.38;;;0.40;99.90;;;;;;5036592;28;20214;-83
2022/01/15 02:15:41;;;;;;;23.75;18.90;;;0.40;99.90;;;;;;5026626;28;20204;-82
2022/01/15 02:18:08;;;;;;;24.50;20.35;;;0.40;99.90;;;;;;5021515;28;20239;-82
2022/01/15 02:23:36;;;;;;;22.15;18.85;;;0.40;99.90;;;;;;5044226;28;20205;-83
2022/01/15 02:26:05;;;;;;;27.80;20.75;;;0.50;99.90;;;;;;5036854;28;20217;-82
2022/01/15 02:28:34;;;;;;;22.73;20.27;;;0.40;99.90;;;;;;5038467;28;20226;-82
2022/01/15 02:31:02;;;;;;;23.23;20.90;;;0.40;99.90;;;;;;5020384;28;20200;-82
2022/01/15 02:33:30;;;;;;;22.25;19.13;;;0.40;99.90;;;;;;5016676;28;20215;-82
2022/01/15 02:35:59;;;;;;;22.02;19.25;;;0.40;99.90;;;;;;5017367;28;20214;-82
2022/01/15 02:38:26;;;;;;;23.35;19.85;;;0.40;99.90;;;;;;5024386;28;20229;-83
2022/01/15 02:40:53;;;;;;;24.73;20.92;;;0.40;99.90;;;;;;5024979;28;20211;-81
2022/01/15 02:43:27;;;;;;;23.63;21.20;;;0.40;99.90;;;;;;5023231;28;20206;-81
2022/01/15 02:45:55;;;;;;;23.63;21.20;;;0.30;99.90;;;;;;5041192;28;20242;-83
2022/01/15 02:48:24;;;;;;;29.38;20.30;;;0.30;99.90;;;;;;5037448;28;20215;-83
2022/01/15 02:50:50;;;;;;;24.40;18.35;;;0.30;99.90;;;;;;5019070;28;20294;-82
2022/01/15 02:53:19;;;;;;;28.77;22.38;;;0.30;99.90;;;;;;5024319;28;20207;-84
2022/01/15 02:55:47;;;;;;;24.60;19.95;;;0.30;99.90;;;;;;5037726;28;20203;-84
2022/01/15 02:58:14;;;;;;;27.15;21.27;;;0.30;99.90;;;;;;5024267;28;20242;-84
2022/01/15 03:00:42;;;;;;;23.83;20.10;;;0.30;99.90;;;;;;5045605;28;20213;-81
2022/01/15 03:03:08;;;;;;;24.35;19.98;;;0.30;99.90;;;;;;5034200;28;20203;-81
2022/01/15 03:05:35;;;;;;;24.30;20.95;;;0.20;99.90;;;;;;5037916;28;20214;-82
2022/01/15 03:08:03;;;;;;;22.48;20.00;;;0.20;99.90;;;;;;5033472;28;20575;-81
2022/01/15 03:10:31;;;;;;;22.77;19.67;;;0.20;99.90;;;;;;5034022;28;20206;-81
2022/01/15 03:12:58;;;;;;;25.98;20.88;;;0.00;99.90;;;;;;5032573;28;20210;-82
2022/01/15 03:15:26;;;;;;;29.00;22.60;;;0.00;99.90;;;;;;5033276;28;20285;-83
2022/01/15 03:17:53;;;;;;;24.08;19.65;;;-0.10;99.90;;;;;;5034366;28;20258;-82
2022/01/15 03:20:20;;;;;;;25.08;22.52;;;0.00;99.90;;;;;;5031616;28;20195;-81
2022/01/15 03:22:47;;;;;;;21.63;19.52;;;0.00;99.90;;;;;;5033824;28;20210;-82
2022/01/15 03:25:15;;;;;;;26.80;20.42;;;0.00;99.90;;;;;;5033433;28;20213;-81
2022/01/15 03:27:43;;;;;;;24.13;19.77;;;0.10;99.90;;;;;;5025447;28;20226;-82
2022/01/15 03:30:12;;;;;;;27.73;21.77;;;0.10;99.90;;;;;;5013369;28;20207;-82
2022/01/15 03:32:42;;;;;;;21.15;19.10;;;0.10;99.90;;;;;;5022346;28;20198;-84
2022/01/15 03:35:11;;;;;;;26.02;19.27;;;0.10;99.90;;;;;;5023949;28;20234;-84
2022/01/15 03:37:38;;;;;;;25.90;19.30;;;0.10;99.90;;;;;;5022176;28;20692;-82
2022/01/15 03:40:06;;;;;;;28.77;20.83;;;0.10;99.90;;;;;;5035783;28;20210;-84
2022/01/15 03:42:33;;;;;;;22.13;19.65;;;0.10;99.90;;;;;;5032692;28;20222;-81
2022/01/15 03:45:01;;;;;;;23.60;21.27;;;0.10;99.90;;;;;;5016494;28;20214;-81
2022/01/15 03:47:28;;;;;;;21.45;19.20;;;0.20;99.90;;;;;;5022923;28;20218;-83
2022/01/15 03:49:54;;;;;;;28.10;21.42;;;0.10;99.90;;;;;;5039439;28;20565;-84
2022/01/15 03:52:21;;;;;;;25.98;21.10;;;0.10;99.90;;;;;;5024665;28;20199;-85
2022/01/15 03:54:48;;;;;;;21.48;19.17;;;0.10;99.90;;;;;;5019428;28;20211;-82
2022/01/15 03:57:15;;;;;;;21.55;19.27;;;0.10;99.90;;;;;;5017744;28;20227;-81
2022/01/15 03:59:41;;;;;;;21.85;19.05;;;0.10;99.90;;;;;;5017574;28;20207;-81
2022/01/15 04:02:10;;;;;;;27.88;20.60;;;0.10;99.90;;;;;;5027727;28;20293;-81
2022/01/15 04:04:36;;;;;;;22.50;20.42;;;0.10;99.90;;;;;;5037472;28;20202;-82
2022/01/15 04:07:04;;;;;;;26.30;20.88;;;0.10;99.90;;;;;;5026643;28;20208;-81
2022/01/15 04:09:30;;;;;;;22.65;19.42;;;0.10;99.90;;;;;;5017869;28;20207;-81
2022/01/15 04:11:57;;;;;;;25.70;20.08;;;0.10;99.90;;;;;;5026980;28;20202;-82
2022/01/15 04:14:24;;;;;;;22.17;19.85;;;0.10;99.90;;;;;;5037872;28;20695;-83
2022/01/15 04:16:50;;;;;;;23.20;19.98;;;0.10;99.90;;;;;;5036060;28;20209;-82
2022/01/15 04:19:19;;;;;;;23.85;20.67;;;0.10;99.90;;;;;;5035374;28;20228;-81
2022/01/15 04:21:45;;;;;;;25.20;22.50;;;0.10;99.90;;;;;;5034767;28;20214;-83
2022/01/15 04:24:12;;;;;;;24.83;20.05;;;0.10;99.90;;;;;;5035264;28;20210;-83
2022/01/15 04:26:39;;;;;;;19.52;17.50;;;0.10;99.90;;;;;;5033420;28;20206;-82
2022/01/15 04:29:06;;;;;;;23.85;20.75;;;0.10;99.90;;;;;;5034966;28;20223;-81
2022/01/15 04:31:46;;;;;;;24.23;19.80;;;0.00;99.90;;;;;;5034441;28;20234;-81
2022/01/15 04:34:14;;;;;;;26.10;20.08;;;0.00;99.90;;;;;;5034545;28;20191;-82
2022/01/15 04:36:42;;;;;;;22.13;19.55;;;0.00;99.90;;;;;;5034811;28;20212;-81
2022/01/15 04:39:10;;;;;;;27.42;20.67;;;0.00;99.90;;;;;;5035123;28;20282;-82
2022/01/15 04:41:37;;;;;;;19.80;17.90;;;0.00;99.90;;;;;;5021332;28;20242;-83
2022/01/15 04:44:05;;;;;;;24.27;20.05;;;0.10;99.90;;;;;;5015965;28;20212;-83
2022/01/15 04:46:32;;;;;;;21.08;18.33;;;0.00;99.90;;;;;;5019874;28;20204;-84
2022/01/15 04:48:59;;;;;;;20.58;17.70;;;0.10;99.90;;;;;;5024250;28;20233;-84
2022/01/15 04:51:26;;;;;;;27.40;20.30;;;0.00;99.90;;;;;;5027065;28;20207;-83
2022/01/15 04:53:54;;;;;;;21.85;18.60;;;0.00;99.90;;;;;;5020887;28;20584;-83
2022/01/15 04:56:21;;;;;;;30.58;21.70;;;-0.10;99.90;;;;;;5036910;28;20210;-83
2022/01/15 04:58:48;;;;;;;22.02;18.65;;;-0.20;99.90;;;;;;5019598;28;20251;-84
2022/01/15 05:01:14;;;;;;;21.30;18.80;;;-0.20;99.90;;;;;;5017357;28;20218;-83
2022/01/15 05:03:41;;;;;;;19.58;17.35;;;-0.10;99.90;;;;;;5032654;28;20202;-82
2022/01/15 05:06:08;;;;;;;24.30;17.65;;;-0.10;99.90;;;;;;5037195;28;20234;-82
2022/01/15 05:08:35;;;;;;;23.52;21.25;;;-0.10;99.90;;;;;;5037472;28;20309;-83
2022/01/15 05:11:12;;;;;;;23.35;19.40;;;0.00;99.90;;;;;;5032130;28;20275;-83
2022/01/15 05:13:39;;;;;;;22.40;20.13;;;0.00;99.90;;;;;;5030144;28;20211;-83
2022/01/15 05:16:07;;;;;;;26.45;19.70;;;0.00;99.90;;;;;;5040104;28;20272;-82
2022/01/15 05:18:34;;;;;;;21.20;17.93;;;0.00;99.90;;;;;;5011642;28;1038278;-81
2022/01/15 05:21:01;;;;;;;19.70;17.80;;;0.00;99.90;;;;;;5038904;28;20210;-81
2022/01/15 05:23:27;;;;;;;23.25;18.02;;;0.00;99.90;;;;;;5028442;28;20230;-83
2022/01/15 05:25:54;;;;;;;18.45;16.63;;;0.00;99.90;;;;;;5023986;28;20608;-82
2022/01/15 05:28:22;;;;;;;22.15;18.10;;;0.00;99.90;;;;;;5021269;28;20604;-84
2022/01/15 05:30:49;;;;;;;20.00;17.90;;;0.00;99.90;;;;;;5019139;28;20211;-82
2022/01/15 05:33:16;;;;;;;22.63;19.52;;;0.00;99.90;;;;;;5016815;28;20582;-83
2022/01/15 05:35:43;;;;;;;26.42;19.13;;;0.00;99.90;;;;;;5032916;28;20738;-82
2022/01/15 05:38:09;;;;;;;21.10;18.45;;;0.00;99.90;;;;;;5039037;28;20231;-81
2022/01/15 05:40:36;;;;;;;22.65;18.48;;;0.00;99.90;;;;;;5023530;28;20211;-81
2022/01/15 05:43:03;;;;;;;19.90;18.00;;;0.00;99.90;;;;;;5039127;28;20221;-82
2022/01/15 05:45:31;;;;;;;25.67;20.38;;;0.00;99.90;;;;;;5038920;28;20210;-81
2022/01/15 05:47:58;;;;;;;21.48;17.90;;;0.00;99.90;;;;;;5037523;28;20230;-81
2022/01/15 05:50:25;;;;;;;23.02;19.00;;;0.00;99.90;;;;;;5036347;28;20581;-83
2022/01/15 05:52:51;;;;;;;20.42;18.27;;;0.00;99.90;;;;;;5036626;28;20214;-83
2022/01/15 05:55:18;;;;;;;20.20;18.25;;;0.00;99.90;;;;;;5036549;28;20203;-82
2022/01/15 05:57:45;;;;;;;20.50;18.40;;;-0.10;99.90;;;;;;5036862;28;20245;-83
2022/01/15 06:00:12;;;;;;;23.80;18.73;;;-0.10;99.90;;;;;;5036462;28;20576;-82
2022/01/15 06:02:40;;;;;;;26.05;17.70;;;-0.10;99.90;;;;;;5036500;28;20206;-83
2022/01/15 06:05:08;;;;;;;17.70;15.77;;;-0.10;99.90;;;;;;5016401;28;20689;-84
2022/01/15 06:07:35;;;;;;;18.77;16.88;;;-0.10;99.90;;;;;;5016067;28;20231;-83
2022/01/15 06:10:01;;;;;;;22.85;16.42;;;-0.10;99.90;;;;;;5016931;28;20210;-83
2022/01/15 06:12:31;;;;;;;19.65;16.67;;;-0.10;99.90;;;;;;5021163;28;20226;-82
2022/01/15 06:14:58;;;;;;;19.05;17.25;;;-0.10;99.90;;;;;;5039489;28;20226;-82
2022/01/15 06:17:25;;;;;;;24.83;18.08;;;-0.10;99.90;;;;;;5040727;28;20243;-84
2022/01/15 06:19:53;;;;;;;24.48;17.05;;;-0.10;99.90;;;;;;5023298;28;20222;-83
2022/01/15 06:22:19;;;;;;;19.15;17.27;;;-0.10;99.90;;;;;;5020033;28;20211;-83
2022/01/15 06:24:46;;;;;;;20.00;17.25;;;-0.10;99.90;;;;;;5031633;28;20202;-82
2022/01/15 06:27:15;;;;;;;24.55;16.08;;;-0.10;99.90;;;;;;5033201;28;20256;-82
2022/01/15 06:29:42;;;;;;;22.00;16.55;;;-0.10;99.90;;;;;;5029881;28;20195;-83
2022/01/15 06:32:09;;;;;;;18.15;16.27;;;-0.10;99.90;;;;;;5023287;28;20203;-84
2022/01/15 06:34:36;;;;;;;18.42;16.52;;;-0.10;99.90;;;;;;5034353;28;20760;-84
2022/01/15 06:37:05;;;;;;;22.10;19.70;;;-0.10;99.90;;;;;;5039351;28;20207;-84
2022/01/15 06:39:32;;;;;;;18.17;15.15;;;-0.10;99.90;;;;;;5021205;28;20298;-84
2022/01/15 06:41:58;;;;;;;21.50;18.15;;;-0.10;99.90;;;;;;5022698;28;20211;-84
2022/01/15 06:44:25;;;;;;;26.05;18.10;;;-0.10;99.90;;;;;;5041933;28;20218;-84
2022/01/15 06:46:52;;;;;;;24.30;18.05;;;-0.10;99.90;;;;;;5041585;28;20229;-84
2022/01/15 06:49:19;;;;;;;20.67;15.88;;;-0.20;99.90;;;;;;5041423;28;20229;-83
2022/01/15 06:51:46;;;;;;;24.00;17.05;;;-0.20;99.90;;;;;;5041405;28;20214;-84
2022/01/15 06:54:14;;;;;;;20.90;18.85;;;-0.10;99.90;;;;;;5023477;28;20212;-83
2022/01/15 06:56:41;;;;;;;21.15;18.73;;;-0.20;99.90;;;;;;5015324;28;20235;-82
2022/01/15 06:59:07;;;;;;;21.25;18.75;;;-0.20;99.90;;;;;;5026056;28;20227;-81
2022/01/15 07:01:34;;;;;;;20.75;18.38;;;-0.20;99.90;;;;;;5032947;28;20206;-81
2022/01/15 07:04:01;;;;;;;23.10;16.90;;;-0.20;99.90;;;;;;5032966;28;20213;-82
2022/01/15 07:06:28;;;;;;;20.23;17.77;;;-0.20;99.90;;;;;;5032747;28;20580;-81
2022/01/15 07:08:55;;;;;;;23.40;18.55;;;-0.20;99.90;;;;;;5032590;28;20234;-82
2022/01/15 07:11:23;;;;;;;22.80;17.45;;;-0.20;99.90;;;;;;5028974;28;20210;-83
2022/01/15 07:13:50;;;;;;;25.45;19.38;;;-0.20;99.90;;;;;;5012717;28;20217;-81
2022/01/15 07:16:16;;;;;;;21.42;16.63;;;-0.10;99.90;;;;;;5013097;28;20210;-81
2022/01/15 07:18:43;;;;;;;20.08;17.38;;;-0.20;99.90;;;;;;5013500;28;20237;-82
2022/01/15 07:21:10;;;;;;;22.48;17.92;;;-0.10;99.90;;;;;;5017489;28;20207;-81
2022/01/15 07:23:37;;;;;;;19.60;16.55;;;-0.10;99.90;;;;;;5036715;28;20210;-82
2022/01/15 07:26:04;;;;;;;19.58;17.67;;;-0.10;99.90;;;;;;5036669;28;20211;-81
2022/01/15 07:28:32;;;;;;;24.48;19.63;;;-0.10;99.90;;;;;;5016610;28;20226;-81
2022/01/15 07:31:00;;;;;;;24.77;18.90;;;-0.20;99.90;;;;;;5025618;28;20202;-83
2022/01/15 07:33:26;;;;;;;21.55;18.25;;;-0.20;99.90;;;;;;5037526;28;20660;-84
2022/01/15 07:35:54;;;;;;;23.27;18.98;;;-0.20;99.90;;;;;;5029263;28;20665;-81
2022/01/15 07:38:21;;;;;;;23.60;16.88;;;-0.30;99.90;;;;;;5016788;28;20234;-81
2022/01/15 07:40:48;;;;;;;23.13;17.48;;;-0.20;99.90;;;;;;5021382;28;20208;-81
2022/01/15 07:43:15;;;;;;;24.17;19.92;;;-0.10;99.90;;;;;;5037155;28;20695;-82
2022/01/15 07:45:43;;;;;;;20.83;18.73;;;-0.10;99.90;;;;;;5031351;28;20707;-82
2022/01/15 07:48:10;;;;;;;24.88;19.63;;;0.00;99.90;;;;;;5016818;28;20238;-82
2022/01/15 07:50:37;;;;;;;21.58;19.42;;;0.00;99.90;;;;;;5032990;28;20206;-84
2022/01/15 07:53:04;;;;;;;23.67;21.17;;;0.10;99.90;;;;;;5039039;28;20203;-80
2022/01/15 07:55:31;;;;;;;23.38;19.58;;;0.20;99.90;;;;;;5038494;28;20202;-81
2022/01/15 07:57:58;;;;;;;22.63;20.33;;;0.30;99.90;;;;;;5038286;28;20237;-81
2022/01/15 08:00:24;;;;;;;24.98;19.73;;;0.40;99.90;;;;;;5026514;28;20238;-81
2022/01/15 08:02:54;;;;;;;20.20;17.60;;;0.50;99.90;;;;;;5018540;28;20199;-81
2022/01/15 08:05:20;;;;;;;22.95;20.55;;;0.50;99.90;;;;;;5029290;28;20202;-81
2022/01/15 08:07:47;;;;;;;18.83;16.92;;;0.50;99.90;;;;;;5037997;28;20608;-81
2022/01/15 08:10:15;;;;;;;18.15;16.25;;;0.60;99.90;;;;;;5026916;28;20210;-83
2022/01/15 08:12:45;;;;;;;18.75;16.02;;;0.60;99.90;;;;;;5024552;28;20192;-80
2022/01/15 08:15:12;;;;;;;18.70;16.70;;;0.70;99.90;;;;;;5055244;28;20181;-79
2022/01/15 08:17:39;;;;;;;20.85;17.25;;;0.70;99.90;;;;;;5056696;28;20229;-79
2022/01/15 08:20:09;;;;;;;21.63;19.42;;;0.70;99.90;;;;;;5060370;28;20227;-80
2022/01/15 08:22:35;;;;;;;19.23;17.33;;;0.80;99.90;;;;;;5056661;28;20209;-84
2022/01/15 08:25:02;;;;;;;21.67;19.00;;;0.70;99.90;;;;;;5045213;28;20207;-84
2022/01/15 08:27:29;;;;;;;23.35;18.38;;;0.80;99.90;;;;;;5037305;28;20222;-84
2022/01/15 08:29:56;;;;;;;22.15;17.20;;;0.80;99.90;;;;;;5041829;28;20199;-84
2022/01/15 08:32:23;;;;;;;20.40;17.67;;;0.80;99.90;;;;;;5042656;28;20239;-83
2022/01/15 08:34:49;;;;;;;21.63;19.40;;;0.80;99.90;;;;;;5039728;28;20214;-83
2022/01/15 08:37:17;;;;;;;24.38;20.02;;;0.80;99.90;;;;;;5039198;28;20233;-82
2022/01/15 08:39:44;;;;;;;24.55;18.77;;;0.90;99.90;;;;;;5030725;28;20223;-83
2022/01/15 08:42:11;;;;;;;20.75;18.55;;;1.00;99.90;;;;;;5021846;28;20200;-83
2022/01/15 08:44:41;;;;;;;21.60;19.17;;;1.10;99.90;;;;;;5024491;28;20203;-82
2022/01/15 08:47:08;;;;;;;22.13;19.27;;;1.20;99.90;;;;;;5021792;28;20206;-81
2022/01/15 08:49:35;;;;;;;25.25;17.88;;;1.20;99.90;;;;;;5024954;28;20199;-81
2022/01/15 08:52:02;;;;;;;22.75;18.00;;;1.30;99.90;;;;;;5018238;28;20207;-80
2022/01/15 08:54:30;;;;;;;20.92;18.73;;;1.40;99.90;;;;;;5027126;28;20208;-82
2022/01/15 08:56:57;;;;;;;22.50;20.05;;;1.40;99.90;;;;;;5041581;28;20207;-81
2022/01/15 08:59:26;;;;;;;25.67;19.95;;;1.30;99.90;;;;;;5033590;28;20235;-82
2022/01/15 09:01:53;;;;;;;23.40;18.70;;;1.30;99.90;;;;;;5040814;28;20230;-83
2022/01/15 09:04:20;;;;;;;19.80;17.73;;;1.50;99.90;;;;;;5046052;28;20210;-82
2022/01/15 09:06:47;;;;;;;23.65;20.33;;;1.60;99.90;;;;;;5046504;28;20199;-83
2022/01/15 09:09:14;;;;;;;24.63;19.13;;;1.70;99.90;;;;;;5043447;28;20223;-82
2022/01/15 09:11:42;;;;;;;26.60;21.48;;;1.70;99.90;;;;;;5049972;28;20232;-82
2022/01/15 09:14:10;;;;;;;22.75;20.52;;;1.80;99.90;;;;;;5047545;28;20203;-82
2022/01/15 09:16:36;;;;;;;20.80;18.67;;;1.90;99.90;;;;;;5051685;28;20220;-82
2022/01/15 09:19:04;;;;;;;27.17;20.58;;;1.90;99.90;;;;;;5044818;28;20229;-82
2022/01/15 09:21:31;;;;;;;22.63;20.33;;;2.00;99.90;;;;;;5048697;28;20206;-82
2022/01/15 09:23:58;;;;;;;27.42;22.52;;;2.10;99.90;;;;;;5047464;28;20210;-83
2022/01/15 09:26:45;;;;;;;20.77;18.60;;;2.20;99.90;;;;;;5051295;28;20204;-82
2022/01/15 09:31:58;;;;;;;23.73;21.30;;;2.30;99.90;;;;;;5046597;28;20263;-81
2022/01/15 09:34:26;;;;;;;21.15;18.95;;;2.40;99.90;;;;;;5044960;28;20204;-81
2022/01/15 09:36:52;;;;;;;21.52;19.38;;;2.60;99.90;;;;;;5042001;28;20213;-81
2022/01/15 09:39:20;;;;;;;20.65;18.55;;;2.70;99.90;;;;;;5042478;28;20219;-81
2022/01/15 09:41:48;;;;;;;20.25;18.17;;;2.80;99.90;;;;;;5047561;28;20216;-84
2022/01/15 09:44:17;;;;;;;22.30;20.02;;;2.90;99.90;;;;;;5027911;28;20210;-83
2022/01/15 09:46:46;;;;;;;19.63;17.63;;;2.90;99.90;;;;;;5038862;28;20208;-83
2022/01/15 09:49:16;;;;;;;22.88;17.75;;;3.10;99.90;;;;;;5039628;28;20579;-84
2022/01/15 09:51:44;;;;;;;23.05;17.80;;;3.20;99.90;;;;;;5037608;28;20210;-84
2022/01/15 09:54:11;;;;;;;19.63;17.33;;;3.30;99.90;;;;;;5038072;28;20206;-84
2022/01/15 09:56:38;;;;;;;17.70;15.60;;;3.40;99.90;;;;;;5034064;28;20202;-83
2022/01/15 09:59:05;;;;;;;18.02;16.08;;;3.40;99.90;;;;;;5019315;28;20890;-83
2022/01/15 10:01:33;;;;;;;16.40;14.90;;;3.50;99.90;;;;;;5023777;28;20197;-83
2022/01/15 10:04:00;;;;;;;18.77;16.98;;;3.60;99.90;;;;;;5039070;28;20210;-82
2022/01/15 10:06:27;;;;;;;18.40;16.67;;;3.70;99.90;;;;;;5030904;28;20207;-83
2022/01/15 10:09:06;;;;;;;16.95;13.65;;;3.80;99.90;;;;;;5018271;28;20704;-82
2022/01/15 10:11:44;;;;;;;17.60;15.90;;;4.00;99.90;;;;;;5032123;28;20198;-82
2022/01/15 10:14:27;;;;;;;16.98;15.38;;;4.10;99.90;;;;;;5038431;28;20212;-82
2022/01/15 10:16:57;;;;;;;16.83;15.25;;;4.20;99.90;;;;;;5038695;28;20202;-82
2022/01/15 10:19:30;;;;;;;19.08;16.40;;;4.30;99.90;;;;;;5038053;28;20590;-82
2022/01/15 10:22:08;;;;;;;19.55;17.65;;;4.40;99.90;;;;;;5037856;28;20265;-83
2022/01/15 10:24:34;;;;;;;19.30;17.33;;;4.50;99.90;;;;;;5038088;28;20205;-83
2022/01/15 10:27:21;;;;;;;18.85;17.15;;;4.70;99.90;;;;;;5039047;28;20202;-83
2022/01/15 10:29:57;;;;;;;18.70;16.85;;;4.80;99.90;;;;;;5038604;28;20202;-83
2022/01/15 10:32:27;;;;;;;18.48;16.83;;;4.80;99.90;;;;;;5038673;28;20220;-83
2022/01/15 10:34:53;;;;;;;17.55;15.35;;;4.90;99.90;;;;;;5038318;28;20203;-83
2022/01/15 10:37:22;;;;;;;18.30;15.88;;;5.00;99.90;;;;;;5038302;28;20230;-82
2022/01/15 10:39:59;;;;;;;15.77;14.18;;;5.10;99.90;;;;;;5038273;28;20306;-82
2022/01/15 10:42:27;;;;;;;16.98;15.38;;;5.30;99.90;;;;;;5038172;28;20213;-82
2022/01/15 10:44:56;;;;;;;17.45;15.70;;;5.30;99.90;;;;;;5039183;28;20210;-84
2022/01/15 10:47:26;;;;;;;15.48;13.95;;;5.30;99.90;;;;;;5042650;28;20234;-84
2022/01/15 10:49:53;;;;;;;18.02;16.30;;;5.30;99.90;;;;;;5042479;28;20218;-84
2022/01/15 10:52:22;;;;;;;16.23;14.68;;;5.30;99.90;;;;;;5042611;28;20218;-84
2022/01/15 10:55:06;;;;;;;15.55;14.23;;;5.40;99.90;;;;;;5040683;28;20206;-84
2022/01/15 10:57:35;;;;;;;17.50;15.80;;;5.50;99.90;;;;;;5038536;28;20233;-83
2022/01/15 11:00:12;;;;;;;17.95;16.10;;;5.90;99.90;;;;;;5037731;28;20222;-84
2022/01/15 11:02:42;;;;;;;16.98;15.27;;;6.60;99.90;;;;;;5036394;28;20691;-83
2022/01/15 11:05:35;;;;;;;17.13;15.65;;;7.30;99.90;;;;;;5036410;28;20202;-83
2022/01/15 11:08:10;;;;;;;16.92;15.48;;;8.10;99.90;;;;;;5025869;28;20234;-83
2022/01/15 11:10:39;;;;;;;17.67;13.23;;;8.50;99.10;;;;;;5035616;28;20205;-84
2022/01/15 11:13:10;;;;;;;19.85;18.05;;;9.00;98.30;;;;;;5036361;28;20558;-83
2022/01/15 11:15:37;;;;;;;16.20;13.77;;;9.60;98.30;;;;;;5037848;28;20309;-83
2022/01/15 11:18:06;;;;;;;17.20;15.40;;;10.30;96.10;;;;;;5039083;28;20231;-83
2022/01/15 11:20:34;;;;;;;15.10;13.50;;;11.20;94.80;;;;;;5036939;28;20255;-83
2022/01/15 11:23:03;;;;;;;19.53;17.50;;;12.30;92.90;;;;;;5028498;28;20868;-83
2022/01/15 11:25:30;;;;;;;18.27;16.47;;;12.70;89.30;;;;;;5034030;28;20825;-83
2022/01/15 11:27:58;;;;;;;18.07;15.90;;;13.10;85.30;;;;;;5019562;28;20486;-84
2022/01/15 11:30:26;;;;;;;17.73;16.07;;;13.30;83.60;;;;;;5015867;28;20963;-83
2022/01/15 11:32:54;;;;;;;20.77;18.63;;;13.60;83.00;;;;;;5035571;28;20449;-85
2022/01/15 11:35:38;;;;;;;21.63;19.17;;;14.20;80.20;;;;;;5034844;28;20910;-83
2022/01/15 11:38:06;;;;;;;17.97;16.23;;;14.20;77.70;;;;;;5038474;28;20500;-84
2022/01/15 11:40:43;;;;;;;18.20;16.50;;;14.40;76.60;;;;;;5043397;28;20489;-84
2022/01/15 11:43:42;;;;;;;20.00;17.90;;;14.90;75.00;;;;;;5020573;28;20459;-84
2022/01/15 11:46:30;;;;;;;19.20;17.27;;;15.40;72.60;;;;;;5015041;28;20453;-84
2022/01/15 11:49:29;;;;;;;18.43;16.53;;;15.40;71.70;;;;;;5019400;28;20553;-83
2022/01/15 11:51:59;;;;;;;17.70;16.20;;;15.80;71.80;;;;;;5017085;28;20526;-85
2022/01/15 11:54:26;;;;;;;17.67;16.17;;;16.80;70.40;;;;;;5018620;28;20452;-84
2022/01/15 11:56:52;;;;;;;19.07;17.30;;;17.50;66.40;;;;;;5020709;28;20459;-84
2022/01/15 11:59:50;;;;;;;19.43;17.77;;;18.10;65.50;;;;;;5020031;28;20461;-85
2022/01/15 12:02:28;;;;;;;18.70;16.90;;;18.40;61.90;;;;;;4978437;28;20445;-81
2022/01/15 12:04:54;;;;;;;20.70;18.50;;;18.80;59.90;;;;;;5012818;28;20519;-84
2022/01/15 12:07:24;;;;;;;19.77;17.87;;;19.10;58.50;;;;;;5022430;28;20469;-84
2022/01/15 12:09:52;;;;;;;18.33;16.50;;;19.30;58.00;;;;;;5021185;28;20996;-84
2022/01/15 12:12:45;;;;;;;17.37;15.87;;;19.60;57.60;;;;;;5022361;28;20449;-83
2022/01/15 12:15:19;;;;;;;19.37;17.67;;;20.00;56.70;;;;;;5021931;28;20509;-83
2022/01/15 12:17:48;;;;;;;18.27;16.57;;;20.20;54.80;;;;;;5022650;28;21010;-83
2022/01/15 12:20:36;;;;;;;18.40;16.80;;;20.30;55.00;;;;;;5023569;28;20552;-83
2022/01/15 12:23:21;;;;;;;19.67;17.87;;;20.40;54.30;;;;;;5015312;28;20458;-83
2022/01/15 12:25:50;;;;;;;20.60;18.80;;;20.40;53.50;;;;;;5029055;28;20461;-83
2022/01/15 12:28:17;;;;;;;19.60;17.80;;;20.60;53.70;;;;;;5032442;28;20513;-82
2022/01/15 12:30:47;;;;;;;19.53;17.87;;;21.20;52.90;;;;;;5029769;28;20446;-83
2022/01/15 12:33:15;;;;;;;18.37;16.87;;;21.60;51.40;;;;;;5032488;28;20455;-84
2022/01/15 12:35:44;;;;;;;20.57;17.70;;;21.70;50.10;;;;;;5026097;28;20508;-83
2022/01/15 12:38:15;;;;;;;19.50;17.60;;;21.80;49.60;;;;;;5020431;28;20474;-83
2022/01/15 12:40:44;;;;;;;19.83;18.10;;;22.00;49.10;;;;;;5021431;28;20510;-84
2022/01/15 12:43:19;;;;;;;19.50;17.73;;;22.20;49.10;;;;;;5023852;28;20446;-84
2022/01/15 12:45:47;;;;;;;19.00;17.50;;;22.60;48.70;;;;;;5019242;28;20953;-84
2022/01/15 12:48:16;;;;;;;18.70;16.97;;;22.60;47.90;;;;;;5020410;28;20476;-83
2022/01/15 12:50:45;;;;;;;19.70;17.77;;;22.80;47.20;;;;;;5023867;28;20489;-83
2022/01/15 12:53:15;;;;;;;20.03;18.40;;;22.50;46.90;;;;;;5021187;28;20463;-83
2022/01/15 12:55:43;;;;;;;20.60;18.97;;;22.70;47.20;;;;;;5021594;28;20864;-83